NO-0015 weather

Ler Airfield
Melhus, Sør-Trøndelag, Norway

Public forecast

Using degrees Celsius for public forecast. Weather courtesy of forecast.io.

Closest aviation weather report (METAR) to Ler Airfield

Closest report is Trondheim Airport Værnes, 23.1 nm (42.9 km) NE. Retrieved 2020/04/09 06:20 UTC (20 minutes ago):

ENVA 090620Z 26019KT 9999 6000E -SHRA FEW020 BKN024 02/M01 Q1014 TEMPO 1500 SHSNRA VV010 RMK WIND 670FT 27018KT

Closest aviation forecast (TAF) to Ler Airfield

Closest forecast is Trondheim Airport Værnes, 23.1 nm (42.9 km) NE. Retrieved 2020/04/09 06:58 UTC (0 seconds ago):

TAF ENVA 090500Z 0906/1006 26018KT 9999 -SHRA FEW015CB BKN035 TEMPO 0906/1006 1500 SHSNRA VV008 TEMPO 0910/0914 27025G35KT